WXM80 ListenWXM80 Stop

You find our weather info also at:

UK Metoffice

WeatherCloud

Weather Underground

Northeastern Weather Network

AWEKAS

Citizen Weather Observer Program (CWOP)

HAMweather, WeatherForYou, PWS Weather


Weather Underground History page Text

Daily Summary for February 3, 2018 Units:  Both    English   Metric
« Previous Day
Next Day »
Daily Weekly Monthly Yearly Custom
  High: Low: Average:
Temperature: 32.0 °F /  0 °C 15.2 °F /  -9.3 °C 24.1 °F /  -4.4 °C
Dew Point: 18.3 °F /  -7.6 °C 3.9 °F /  -15.6 °C 10.6 °F /  -11.9 °C
Humidity: 69 % 42 % 56 %
Wind Speed: 11.4 mph /  18.3 km/h - 4.2 mph /  6.8 km/h
Wind Gust: 18.4 mph /  29.6 km/h - -
Wind:- - WSW
Pressure: 30.20 in /  1022.6 hPa 30.09 in /  1018.8 hPa -
Precipitation: 0.00 in /  0 mm    
Historical Graphs
 
 
Tabular Data for February 3, 2018
Time Temperature Dew Point Pressure Wind Wind Speed Wind Gust Humidity Rainfall Rate (Hourly)
00:01 16.5 °F /  -8.6 °C 3.9 °F /  -15.6 °C 30.10 in /  1019.2 hPa West 6.5 mph /  10.5 km/h 15.0 mph /  24.1 km/h 57 % 0.00 in /  0 mm
00:06 16.4 °F /  -8.7 °C 4.2 °F /  -15.4 °C 30.10 in /  1019.2 hPa West 1.8 mph /  2.9 km/h 10.4 mph /  16.7 km/h 58 % 0.00 in /  0 mm
00:11 16.4 °F /  -8.7 °C 4.2 °F /  -15.4 °C 30.10 in /  1019.2 hPa WNW 7.6 mph /  12.2 km/h 13.8 mph /  22.2 km/h 58 % 0.00 in /  0 mm
00:16 16.4 °F /  -8.7 °C 4.2 °F /  -15.4 °C 30.10 in /  1019.2 hPa WSW 3.5 mph /  5.6 km/h 12.0 mph /  19.3 km/h 58 % 0.00 in /  0 mm
00:21 16.4 °F /  -8.7 °C 4.6 °F /  -15.2 °C 30.10 in /  1019.2 hPa NNW 6.7 mph /  10.8 km/h 13.8 mph /  22.2 km/h 59 % 0.00 in /  0 mm
00:26 16.4 °F /  -8.7 °C 4.6 °F /  -15.2 °C 30.11 in /  1019.5 hPa NW 9.8 mph /  15.8 km/h 14.0 mph /  22.5 km/h 59 % 0.00 in /  0 mm
00:31 16.4 °F /  -8.7 °C 4.6 °F /  -15.2 °C 30.10 in /  1019.2 hPa NW 3.0 mph /  4.8 km/h 9.2 mph /  14.8 km/h 59 % 0.00 in /  0 mm
00:36 16.4 °F /  -8.7 °C 4.6 °F /  -15.2 °C 30.10 in /  1019.2 hPa NW 4.2 mph /  6.8 km/h 13.8 mph /  22.2 km/h 59 % 0.00 in /  0 mm
00:41 16.4 °F /  -8.7 °C 5.3 °F /  -14.8 °C 30.10 in /  1019.2 hPa West 7.7 mph /  12.4 km/h 16.1 mph /  25.9 km/h 61 % 0.00 in /  0 mm
00:46 16.4 °F /  -8.7 °C 4.9 °F /  -15.1 °C 30.10 in /  1019.2 hPa NW 7.1 mph /  11.4 km/h 12.7 mph /  20.4 km/h 60 % 0.00 in /  0 mm
00:51 16.4 °F /  -8.7 °C 5.3 °F /  -14.8 °C 30.10 in /  1019.2 hPa NNW 7.0 mph /  11.3 km/h 12.7 mph /  20.4 km/h 61 % 0.00 in /  0 mm
00:56 16.5 °F /  -8.6 °C 5.4 °F /  -14.8 °C 30.09 in /  1018.8 hPa WNW 7.9 mph /  12.7 km/h 12.7 mph /  20.4 km/h 61 % 0.00 in /  0 mm
01:01 16.5 °F /  -8.6 °C 5.4 °F /  -14.8 °C 30.09 in /  1018.8 hPa WNW 9.4 mph /  15.1 km/h 17.3 mph /  27.8 km/h 61 % 0.00 in /  0 mm
01:06 16.5 °F /  -8.6 °C 5.4 °F /  -14.8 °C 30.09 in /  1018.8 hPa WSW 5.8 mph /  9.3 km/h 16.1 mph /  25.9 km/h 61 % 0.00 in /  0 mm
01:11 16.5 °F /  -8.6 °C 5.0 °F /  -15 °C 30.10 in /  1019.2 hPa NW 5.4 mph /  8.7 km/h 11.5 mph /  18.5 km/h 60 % 0.00 in /  0 mm
01:16 16.5 °F /  -8.6 °C 5.4 °F /  -14.8 °C 30.10 in /  1019.2 hPa WNW 6.7 mph /  10.8 km/h 11.0 mph /  17.7 km/h 61 % 0.00 in /  0 mm
01:21 16.5 °F /  -8.6 °C 5.0 °F /  -15 °C 30.10 in /  1019.2 hPa WNW 6.4 mph /  10.3 km/h 15.0 mph /  24.1 km/h 60 % 0.00 in /  0 mm
01:26 16.5 °F /  -8.6 °C 5.4 °F /  -14.8 °C 30.10 in /  1019.2 hPa WNW 7.7 mph /  12.4 km/h 15.0 mph /  24.1 km/h 61 % 0.00 in /  0 mm
01:32 16.4 °F /  -8.7 °C 5.3 °F /  -14.8 °C 30.11 in /  1019.5 hPa WNW 3.7 mph /  6 km/h 6.9 mph /  11.1 km/h 61 % 0.00 in /  0 mm
01:37 16.5 °F /  -8.6 °C 5.7 °F /  -14.6 °C 30.10 in /  1019.2 hPa NNW 6.3 mph /  10.1 km/h 18.4 mph /  29.6 km/h 62 % 0.00 in /  0 mm
01:42 16.5 °F /  -8.6 °C 6.1 °F /  -14.4 °C 30.10 in /  1019.2 hPa NW 5.2 mph /  8.4 km/h 9.2 mph /  14.8 km/h 63 % 0.00 in /  0 mm
01:47 16.5 °F /  -8.6 °C 6.1 °F /  -14.4 °C 30.10 in /  1019.2 hPa NW 6.6 mph /  10.6 km/h 11.5 mph /  18.5 km/h 63 % 0.00 in /  0 mm
01:52 16.6 °F /  -8.6 °C 6.2 °F /  -14.3 °C 30.11 in /  1019.5 hPa NW 10.0 mph /  16.1 km/h 18.4 mph /  29.6 km/h 63 % 0.00 in /  0 mm
01:57 16.6 °F /  -8.6 °C 6.2 °F /  -14.3 °C 30.11 in /  1019.5 hPa NNW 5.6 mph /  9 km/h 12.7 mph /  20.4 km/h 63 % 0.00 in /  0 mm
02:02 16.6 °F /  -8.6 °C 6.2 °F /  -14.3 °C 30.11 in /  1019.5 hPa West 6.2 mph /  10 km/h 18.4 mph /  29.6 km/h 63 % 0.00 in /  0 mm
02:07 16.6 °F /  -8.6 °C 6.2 °F /  -14.3 °C 30.12 in /  1019.9 hPa NNW 6.9 mph /  11.1 km/h 11.5 mph /  18.5 km/h 63 % 0.00 in /  0 mm
02:12 16.6 °F /  -8.6 °C 6.2 °F /  -14.3 °C 30.12 in /  1019.9 hPa NW 6.8 mph /  10.9 km/h 17.3 mph /  27.8 km/h 63 % 0.00 in /  0 mm
02:17 16.6 °F /  -8.6 °C 6.2 °F /  -14.3 °C 30.12 in /  1019.9 hPa WNW 6.8 mph /  10.9 km/h 9.2 mph /  14.8 km/h 63 % 0.00 in /  0 mm
02:22 16.6 °F /  -8.6 °C 6.5 °F /  -14.2 °C 30.12 in /  1019.9 hPa NW 3.0 mph /  4.8 km/h 3.5 mph /  5.6 km/h 64 % 0.00 in /  0 mm
02:27 16.6 °F /  -8.6 °C 5.8 °F /  -14.6 °C 30.12 in /  1019.9 hPa WNW 6.9 mph /  11.1 km/h 10.4 mph /  16.7 km/h 62 % 0.00 in /  0 mm
02:32 16.6 °F /  -8.6 °C 5.8 °F /  -14.6 °C 30.12 in /  1019.9 hPa West 11.4 mph /  18.3 km/h 17.3 mph /  27.8 km/h 62 % 0.00 in /  0 mm
02:37 16.5 °F /  -8.6 °C 5.7 °F /  -14.6 °C 30.12 in /  1019.9 hPa WNW 4.1 mph /  6.6 km/h 9.2 mph /  14.8 km/h 62 % 0.00 in /  0 mm
02:42 16.5 °F /  -8.6 °C 6.1 °F /  -14.4 °C 30.12 in /  1019.9 hPa NW 6.3 mph /  10.1 km/h 11.5 mph /  18.5 km/h 63 % 0.00 in /  0 mm
02:47 16.4 °F /  -8.7 °C 6.0 °F /  -14.4 °C 30.13 in /  1020.2 hPa WNW 6.3 mph /  10.1 km/h 11.5 mph /  18.5 km/h 63 % 0.00 in /  0 mm
02:52 16.3 °F /  -8.7 °C 6.2 °F /  -14.3 °C 30.13 in /  1020.2 hPa West 4.3 mph /  6.9 km/h 10.4 mph /  16.7 km/h 64 % 0.00 in /  0 mm
02:57 16.3 °F /  -8.7 °C 6.2 °F /  -14.3 °C 30.13 in /  1020.2 hPa WSW 3.1 mph /  5 km/h 7.0 mph /  11.3 km/h 64 % 0.00 in /  0 mm
03:02 16.3 °F /  -8.7 °C 6.2 °F /  -14.3 °C 30.13 in /  1020.2 hPa WNW 6.3 mph /  10.1 km/h 6.3 mph /  10.1 km/h 64 % 0.00 in /  0 mm
03:07 16.2 °F /  -8.8 °C 6.5 °F /  -14.2 °C 30.13 in /  1020.2 hPa West 4.7 mph /  7.6 km/h 9.0 mph /  14.5 km/h 65 % 0.00 in /  0 mm
03:13 16.2 °F /  -8.8 °C 6.5 °F /  -14.2 °C 30.13 in /  1020.2 hPa West 7.6 mph /  12.2 km/h 16.1 mph /  25.9 km/h 65 % 0.00 in /  0 mm
03:18 16.1 °F /  -8.8 °C 6.1 °F /  -14.4 °C 30.13 in /  1020.2 hPa SW 8.3 mph /  13.4 km/h 8.3 mph /  13.4 km/h 64 % 0.00 in /  0 mm
03:23 16.1 °F /  -8.8 °C 6.4 °F /  -14.2 °C 30.14 in /  1020.5 hPa West 5.4 mph /  8.7 km/h 14.0 mph /  22.5 km/h 65 % 0.00 in /  0 mm
03:28 16.1 °F /  -8.8 °C 6.4 °F /  -14.2 °C 30.14 in /  1020.5 hPa WNW 5.6 mph /  9 km/h 11.5 mph /  18.5 km/h 65 % 0.00 in /  0 mm
03:33 16.2 °F /  -8.8 °C 6.5 °F /  -14.2 °C 30.14 in /  1020.5 hPa WSW 5.1 mph /  8.2 km/h 10.4 mph /  16.7 km/h 65 % 0.00 in /  0 mm
03:38 16.2 °F /  -8.8 °C 6.5 °F /  -14.2 °C 30.14 in /  1020.5 hPa West 3.0 mph /  4.8 km/h 11.5 mph /  18.5 km/h 65 % 0.00 in /  0 mm
03:43 16.2 °F /  -8.8 °C 6.5 °F /  -14.2 °C 30.15 in /  1020.9 hPa WNW 5.4 mph /  8.7 km/h 9.2 mph /  14.8 km/h 65 % 0.00 in /  0 mm
03:48 16.2 °F /  -8.8 °C 6.1 °F /  -14.4 °C 30.15 in /  1020.9 hPa NW 5.4 mph /  8.7 km/h 8.1 mph /  13 km/h 64 % 0.00 in /  0 mm
03:53 16.2 °F /  -8.8 °C 6.1 °F /  -14.4 °C 30.14 in /  1020.5 hPa NW 6.5 mph /  10.5 km/h 10.4 mph /  16.7 km/h 64 % 0.00 in /  0 mm
03:58 16.2 °F /  -8.8 °C 5.8 °F /  -14.6 °C 30.14 in /  1020.5 hPa NW 5.0 mph /  8 km/h 8.0 mph /  12.9 km/h 63 % 0.00 in /  0 mm
04:03 16.2 °F /  -8.8 °C 6.1 °F /  -14.4 °C 30.14 in /  1020.5 hPa West 2.9 mph /  4.7 km/h 6.9 mph /  11.1 km/h 64 % 0.00 in /  0 mm
04:08 16.2 °F /  -8.8 °C 6.1 °F /  -14.4 °C 30.14 in /  1020.5 hPa West 5.3 mph /  8.5 km/h 11.5 mph /  18.5 km/h 64 % 0.00 in /  0 mm
04:14 16.2 °F /  -8.8 °C 5.8 °F /  -14.6 °C 30.14 in /  1020.5 hPa West 1.0 mph /  1.6 km/h 3.5 mph /  5.6 km/h 63 % 0.00 in /  0 mm
04:19 16.3 °F /  -8.7 °C 5.9 °F /  -14.5 °C 30.15 in /  1020.9 hPa WNW 5.7 mph /  9.2 km/h 11.5 mph /  18.5 km/h 63 % 0.00 in /  0 mm
04:24 16.3 °F /  -8.7 °C 5.9 °F /  -14.5 °C 30.15 in /  1020.9 hPa WSW 5.8 mph /  9.3 km/h 9.2 mph /  14.8 km/h 63 % 0.00 in /  0 mm
04:29 16.3 °F /  -8.7 °C 6.2 °F /  -14.3 °C 30.15 in /  1020.9 hPa West 4.9 mph /  7.9 km/h 7.0 mph /  11.3 km/h 64 % 0.00 in /  0 mm
04:34 16.3 °F /  -8.7 °C 5.9 °F /  -14.5 °C 30.15 in /  1020.9 hPa WSW 5.9 mph /  9.5 km/h 9.2 mph /  14.8 km/h 63 % 0.00 in /  0 mm
04:39 16.3 °F /  -8.7 °C 5.5 °F /  -14.7 °C 30.15 in /  1020.9 hPa SW 5.0 mph /  8 km/h 5.8 mph /  9.3 km/h 62 % 0.00 in /  0 mm
04:44 16.4 °F /  -8.7 °C 5.6 °F /  -14.7 °C 30.15 in /  1020.9 hPa WSW 4.1 mph /  6.6 km/h 10.4 mph /  16.7 km/h 62 % 0.00 in /  0 mm
04:49 16.4 °F /  -8.7 °C 6.0 °F /  -14.4 °C 30.15 in /  1020.9 hPa WSW 5.6 mph /  9 km/h 10.4 mph /  16.7 km/h 63 % 0.00 in /  0 mm
04:54 16.4 °F /  -8.7 °C 6.0 °F /  -14.4 °C 30.15 in /  1020.9 hPa WSW 2.3 mph /  3.7 km/h 6.9 mph /  11.1 km/h 63 % 0.00 in /  0 mm
04:59 16.5 °F /  -8.6 °C 6.4 °F /  -14.2 °C 30.16 in /  1021.2 hPa WSW 1.4 mph /  2.3 km/h 7.0 mph /  11.3 km/h 64 % 0.00 in /  0 mm
05:04 16.5 °F /  -8.6 °C 6.4 °F /  -14.2 °C 30.16 in /  1021.2 hPa WSW 6.9 mph /  11.1 km/h 11.5 mph /  18.5 km/h 64 % 0.00 in /  0 mm
05:09 16.5 °F /  -8.6 °C 6.4 °F /  -14.2 °C 30.16 in /  1021.2 hPa SW 4.5 mph /  7.2 km/h 10.4 mph /  16.7 km/h 64 % 0.00 in /  0 mm
05:14 16.5 °F /  -8.6 °C 6.1 °F /  -14.4 °C 30.15 in /  1020.9 hPa West 2.6 mph /  4.2 km/h 8.1 mph /  13 km/h 63 % 0.00 in /  0 mm
05:19 16.6 °F /  -8.6 °C 6.2 °F /  -14.3 °C 30.16 in /  1021.2 hPa WNW 4.8 mph /  7.7 km/h 6.9 mph /  11.1 km/h 63 % 0.00 in /  0 mm
05:24 16.6 °F /  -8.6 °C 6.2 °F /  -14.3 °C 30.16 in /  1021.2 hPa West 5.7 mph /  9.2 km/h 11.5 mph /  18.5 km/h 63 % 0.00 in /  0 mm
05:29 16.6 °F /  -8.6 °C 6.5 °F /  -14.2 °C 30.16 in /  1021.2 hPa SSW 2.6 mph /  4.2 km/h 4.6 mph /  7.4 km/h 64 % 0.00 in /  0 mm
05:34 16.6 °F /  -8.6 °C 6.5 °F /  -14.2 °C 30.16 in /  1021.2 hPa WSW 1.3 mph /  2.1 km/h 3.5 mph /  5.6 km/h 64 % 0.00 in /  0 mm
05:40 16.6 °F /  -8.6 °C 6.9 °F /  -13.9 °C 30.16 in /  1021.2 hPa SW 3.1 mph /  5 km/h 4.0 mph /  6.4 km/h 65 % 0.00 in /  0 mm
05:45 16.6 °F /  -8.6 °C 6.9 °F /  -13.9 °C 30.16 in /  1021.2 hPa SW 2.1 mph /  3.4 km/h 4.0 mph /  6.4 km/h 65 % 0.00 in /  0 mm
05:50 16.5 °F /  -8.6 °C 6.8 °F /  -14 °C 30.16 in /  1021.2 hPa SSW 2.2 mph /  3.5 km/h 4.6 mph /  7.4 km/h 65 % 0.00 in /  0 mm
05:55 16.4 °F /  -8.7 °C 6.7 °F /  -14.1 °C 30.17 in /  1021.6 hPa SW 3.6 mph /  5.8 km/h 5.0 mph /  8 km/h 65 % 0.00 in /  0 mm
06:00 16.3 °F /  -8.7 °C 6.9 °F /  -13.9 °C 30.17 in /  1021.6 hPa SSW 0.9 mph /  1.4 km/h 3.5 mph /  5.6 km/h 66 % 0.00 in /  0 mm
06:05 16.3 °F /  -8.7 °C 6.6 °F /  -14.1 °C 30.17 in /  1021.6 hPa SW 0.8 mph /  1.3 km/h 3.5 mph /  5.6 km/h 65 % 0.00 in /  0 mm
06:10 16.2 °F /  -8.8 °C 6.8 °F /  -14 °C 30.17 in /  1021.6 hPa SW 2.2 mph /  3.5 km/h 4.6 mph /  7.4 km/h 66 % 0.00 in /  0 mm
06:15 16.1 °F /  -8.8 °C 6.7 °F /  -14.1 °C 30.17 in /  1021.6 hPa SW 0.1 mph /  0.2 km/h 3.5 mph /  5.6 km/h 66 % 0.00 in /  0 mm
06:25 15.9 °F /  -8.9 °C 6.9 °F /  -13.9 °C 30.17 in /  1021.6 hPa SW 2.1 mph /  3.4 km/h 3.5 mph /  5.6 km/h 67 % 0.00 in /  0 mm
06:30 15.9 °F /  -8.9 °C 6.9 °F /  -13.9 °C 30.17 in /  1021.6 hPa Calm     67 % 0.00 in /  0 mm
06:35 15.8 °F /  -9 °C 6.8 °F /  -14 °C 30.17 in /  1021.6 hPa SW 0.5 mph /  0.8 km/h 2.3 mph /  3.7 km/h 67 % 0.00 in /  0 mm
06:40 15.7 °F /  -9.1 °C 6.7 °F /  -14.1 °C 30.17 in /  1021.6 hPa SW 1.2 mph /  1.9 km/h 3.0 mph /  4.8 km/h 67 % 0.00 in /  0 mm
06:45 15.6 °F /  -9.1 °C 6.6 °F /  -14.1 °C 30.17 in /  1021.6 hPa SW 0.5 mph /  0.8 km/h 3.5 mph /  5.6 km/h 67 % 0.00 in /  0 mm
06:50 15.5 °F /  -9.2 °C 6.5 °F /  -14.2 °C 30.17 in /  1021.6 hPa SW 0.1 mph /  0.2 km/h   67 % 0.00 in /  0 mm
06:55 15.4 °F /  -9.2 °C 6.7 °F /  -14.1 °C 30.18 in /  1021.9 hPa SW 0.5 mph /  0.8 km/h 3.5 mph /  5.6 km/h 68 % 0.00 in /  0 mm
07:00 15.3 °F /  -9.3 °C 6.6 °F /  -14.1 °C 30.18 in /  1021.9 hPa SW 1.2 mph /  1.9 km/h 4.0 mph /  6.4 km/h 68 % 0.00 in /  0 mm
07:06 15.2 °F /  -9.3 °C 6.6 °F /  -14.1 °C 30.18 in /  1021.9 hPa SW 2.0 mph /  3.2 km/h 5.0 mph /  8 km/h 68 % 0.00 in /  0 mm
07:11 15.2 °F /  -9.3 °C 6.5 °F /  -14.2 °C 30.18 in /  1021.9 hPa SSW 1.0 mph /  1.6 km/h 4.0 mph /  6.4 km/h 68 % 0.00 in /  0 mm
07:15 15.2 °F /  -9.3 °C 6.5 °F /  -14.2 °C 30.18 in /  1021.9 hPa SW 1.0 mph /  1.6 km/h 4.0 mph /  6.4 km/h 68 % 0.00 in /  0 mm
07:21 15.3 °F /  -9.3 °C 6.6 °F /  -14.1 °C 30.18 in /  1021.9 hPa SW 5.0 mph /  8 km/h 10.0 mph /  16.1 km/h 68 % 0.00 in /  0 mm
07:26 15.4 °F /  -9.2 °C 6.7 °F /  -14.1 °C 30.18 in /  1021.9 hPa SSW 3.0 mph /  4.8 km/h 7.0 mph /  11.3 km/h 68 % 0.00 in /  0 mm
07:30 15.6 °F /  -9.1 °C 7.2 °F /  -13.8 °C 30.18 in /  1021.9 hPa SW 3.0 mph /  4.8 km/h 8.0 mph /  12.9 km/h 69 % 0.00 in /  0 mm
07:35 15.8 °F /  -9 °C 7.1 °F /  -13.8 °C 30.19 in /  1022.2 hPa SW 6.0 mph /  9.7 km/h 9.0 mph /  14.5 km/h 68 % 0.00 in /  0 mm
07:41 16.1 °F /  -8.8 °C 7.1 °F /  -13.8 °C 30.19 in /  1022.2 hPa SSW 5.0 mph /  8 km/h 8.0 mph /  12.9 km/h 67 % 0.00 in /  0 mm
07:45 16.3 °F /  -8.7 °C 7.3 °F /  -13.7 °C 30.19 in /  1022.2 hPa SW 2.0 mph /  3.2 km/h 9.0 mph /  14.5 km/h 67 % 0.00 in /  0 mm
07:51 16.6 °F /  -8.6 °C 7.5 °F /  -13.6 °C 30.19 in /  1022.2 hPa SW 3.0 mph /  4.8 km/h 6.0 mph /  9.7 km/h 67 % 0.00 in /  0 mm
07:55 17.0 °F /  -8.3 °C 7.5 °F /  -13.6 °C 30.19 in /  1022.2 hPa SW 6.0 mph /  9.7 km/h 10.0 mph /  16.1 km/h 66 % 0.00 in /  0 mm
08:01 17.3 °F /  -8.2 °C 7.9 °F /  -13.4 °C 30.19 in /  1022.2 hPa SSW 3.0 mph /  4.8 km/h 6.0 mph /  9.7 km/h 66 % 0.00 in /  0 mm
08:06 17.6 °F /  -8 °C 8.2 °F /  -13.2 °C 30.19 in /  1022.2 hPa SW 5.0 mph /  8 km/h 8.0 mph /  12.9 km/h 66 % 0.00 in /  0 mm
08:11 18.0 °F /  -7.8 °C 8.2 °F /  -13.2 °C 30.19 in /  1022.2 hPa SSW 3.3 mph /  5.3 km/h 6.0 mph /  9.7 km/h 65 % 0.00 in /  0 mm
08:15 18.3 °F /  -7.6 °C 8.1 °F /  -13.3 °C 30.19 in /  1022.2 hPa SW 6.0 mph /  9.7 km/h 8.0 mph /  12.9 km/h 64 % 0.00 in /  0 mm
08:20 18.7 °F /  -7.4 °C 8.2 °F /  -13.2 °C 30.19 in /  1022.2 hPa SSW 4.7 mph /  7.6 km/h 9.2 mph /  14.8 km/h 63 % 0.00 in /  0 mm
08:25 19.1 °F /  -7.2 °C 8.6 °F /  -13 °C 30.19 in /  1022.2 hPa SW 5.0 mph /  8 km/h 8.0 mph /  12.9 km/h 63 % 0.00 in /  0 mm
08:30 19.5 °F /  -6.9 °C 8.9 °F /  -12.8 °C 30.19 in /  1022.2 hPa SSW 0.7 mph /  1.1 km/h 4.0 mph /  6.4 km/h 63 % 0.00 in /  0 mm
08:36 19.9 °F /  -6.7 °C 9.0 °F /  -12.8 °C 30.19 in /  1022.2 hPa SW 5.0 mph /  8 km/h 7.0 mph /  11.3 km/h 62 % 0.00 in /  0 mm
08:40 20.4 °F /  -6.4 °C 9.4 °F /  -12.6 °C 30.19 in /  1022.2 hPa SW 3.0 mph /  4.8 km/h 7.0 mph /  11.3 km/h 62 % 0.00 in /  0 mm
08:45 20.9 °F /  -6.2 °C 9.5 °F /  -12.5 °C 30.19 in /  1022.2 hPa South 1.5 mph /  2.4 km/h 5.8 mph /  9.3 km/h 61 % 0.00 in /  0 mm
08:50 21.4 °F /  -5.9 °C 10.0 °F /  -12.2 °C 30.19 in /  1022.2 hPa SW 3.0 mph /  4.8 km/h 12.0 mph /  19.3 km/h 61 % 0.00 in /  0 mm
08:55 22.0 °F /  -5.6 °C 10.2 °F /  -12.1 °C 30.19 in /  1022.2 hPa WSW 2.0 mph /  3.2 km/h 9.0 mph /  14.5 km/h 60 % 0.00 in /  0 mm
09:00 22.6 °F /  -5.2 °C 10.0 °F /  -12.2 °C 30.19 in /  1022.2 hPa SW 7.2 mph /  11.6 km/h 12.7 mph /  20.4 km/h 58 % 0.00 in /  0 mm
09:06 23.1 °F /  -4.9 °C 10.1 °F /  -12.2 °C 30.19 in /  1022.2 hPa WSW 7.0 mph /  11.3 km/h 14.0 mph /  22.5 km/h 57 % 0.00 in /  0 mm
09:10 23.6 °F /  -4.7 °C 10.2 °F /  -12.1 °C 30.18 in /  1021.9 hPa WSW 9.0 mph /  14.5 km/h 14.0 mph /  22.5 km/h 56 % 0.00 in /  0 mm
09:15 24.0 °F /  -4.4 °C 10.1 °F /  -12.2 °C 30.18 in /  1021.9 hPa WSW 8.0 mph /  12.9 km/h 12.0 mph /  19.3 km/h 55 % 0.00 in /  0 mm
09:20 24.2 °F /  -4.3 °C 9.9 °F /  -12.3 °C 30.18 in /  1021.9 hPa WSW 6.0 mph /  9.7 km/h 13.0 mph /  20.9 km/h 54 % 0.00 in /  0 mm
09:25 24.3 °F /  -4.3 °C 10.0 °F /  -12.2 °C 30.18 in /  1021.9 hPa WSW 6.0 mph /  9.7 km/h 15.0 mph /  24.1 km/h 54 % 0.00 in /  0 mm
09:31 24.5 °F /  -4.2 °C 10.2 °F /  -12.1 °C 30.18 in /  1021.9 hPa WSW 5.0 mph /  8 km/h 12.0 mph /  19.3 km/h 54 % 0.00 in /  0 mm
09:36 24.5 °F /  -4.2 °C 9.8 °F /  -12.3 °C 30.19 in /  1022.2 hPa WSW 7.0 mph /  11.3 km/h 15.0 mph /  24.1 km/h 53 % 0.00 in /  0 mm
09:41 24.6 °F /  -4.1 °C 9.9 °F /  -12.3 °C 30.18 in /  1021.9 hPa WSW 3.0 mph /  4.8 km/h 10.0 mph /  16.1 km/h 53 % 0.00 in /  0 mm
09:45 24.8 °F /  -4 °C 10.1 °F /  -12.2 °C 30.19 in /  1022.2 hPa West 8.0 mph /  12.9 km/h 13.0 mph /  20.9 km/h 53 % 0.00 in /  0 mm
09:51 25.2 °F /  -3.8 °C 10.4 °F /  -12 °C 30.19 in /  1022.2 hPa WSW 6.0 mph /  9.7 km/h 13.0 mph /  20.9 km/h 53 % 0.00 in /  0 mm
09:56 25.6 °F /  -3.6 °C 10.8 °F /  -11.8 °C 30.19 in /  1022.2 hPa WSW 6.0 mph /  9.7 km/h 12.0 mph /  19.3 km/h 53 % 0.00 in /  0 mm
10:01 25.7 °F /  -3.5 °C 10.0 °F /  -12.2 °C 30.19 in /  1022.2 hPa NW 6.0 mph /  9.7 km/h 16.1 mph /  25.9 km/h 51 % 0.00 in /  0 mm
10:06 25.8 °F /  -3.4 °C 10.6 °F /  -11.9 °C 30.19 in /  1022.2 hPa WNW 7.9 mph /  12.7 km/h 13.8 mph /  22.2 km/h 52 % 0.00 in /  0 mm
10:11 26.0 °F /  -3.3 °C 10.3 °F /  -12.1 °C 30.19 in /  1022.2 hPa WSW 3.3 mph /  5.3 km/h 11.5 mph /  18.5 km/h 51 % 0.00 in /  0 mm
10:16 26.2 °F /  -3.2 °C 10.5 °F /  -11.9 °C 30.19 in /  1022.2 hPa WSW 9.1 mph /  14.6 km/h 11.5 mph /  18.5 km/h 51 % 0.00 in /  0 mm
10:21 26.5 °F /  -3.1 °C 10.8 °F /  -11.8 °C 30.19 in /  1022.2 hPa WSW 2.0 mph /  3.2 km/h 11.5 mph /  18.5 km/h 51 % 0.00 in /  0 mm
10:26 26.8 °F /  -2.9 °C 11.1 °F /  -11.6 °C 30.19 in /  1022.2 hPa WNW 6.6 mph /  10.6 km/h 11.5 mph /  18.5 km/h 51 % 0.00 in /  0 mm
10:31 27.1 °F /  -2.7 °C 11.3 °F /  -11.5 °C 30.19 in /  1022.2 hPa WSW 8.4 mph /  13.5 km/h 12.7 mph /  20.4 km/h 51 % 0.00 in /  0 mm
10:36 27.2 °F /  -2.7 °C 11.9 °F /  -11.2 °C 30.20 in /  1022.6 hPa SW 5.7 mph /  9.2 km/h 15.0 mph /  24.1 km/h 52 % 0.00 in /  0 mm
10:41 27.4 °F /  -2.6 °C 11.6 °F /  -11.3 °C 30.19 in /  1022.2 hPa NW 4.3 mph /  6.9 km/h 10.4 mph /  16.7 km/h 51 % 0.00 in /  0 mm
10:46 27.6 °F /  -2.4 °C 11.4 °F /  -11.4 °C 30.19 in /  1022.2 hPa West 9.2 mph /  14.8 km/h 12.7 mph /  20.4 km/h 50 % 0.00 in /  0 mm
10:51 27.8 °F /  -2.3 °C 11.5 °F /  -11.4 °C 30.19 in /  1022.2 hPa West 2.7 mph /  4.3 km/h 6.9 mph /  11.1 km/h 50 % 0.00 in /  0 mm
10:56 28.2 °F /  -2.1 °C 11.9 °F /  -11.2 °C 30.18 in /  1021.9 hPa SSW 2.5 mph /  4 km/h 8.1 mph /  13 km/h 50 % 0.00 in /  0 mm
11:01 28.5 °F /  -1.9 °C 11.7 °F /  -11.3 °C 30.18 in /  1021.9 hPa SW 5.6 mph /  9 km/h 11.5 mph /  18.5 km/h 49 % 0.00 in /  0 mm
11:06 28.7 °F /  -1.8 °C 11.5 °F /  -11.4 °C 30.18 in /  1021.9 hPa WSW 4.3 mph /  6.9 km/h 11.5 mph /  18.5 km/h 48 % 0.00 in /  0 mm
11:11 28.8 °F /  -1.8 °C 12.0 °F /  -11.1 °C 30.18 in /  1021.9 hPa WSW 6.3 mph /  10.1 km/h 10.4 mph /  16.7 km/h 49 % 0.00 in /  0 mm
11:16 28.7 °F /  -1.8 °C 11.5 °F /  -11.4 °C 30.18 in /  1021.9 hPa South 5.0 mph /  8 km/h 11.5 mph /  18.5 km/h 48 % 0.00 in /  0 mm
11:21 28.6 °F /  -1.9 °C 11.4 °F /  -11.4 °C 30.18 in /  1021.9 hPa WSW 6.0 mph /  9.7 km/h 9.2 mph /  14.8 km/h 48 % 0.00 in /  0 mm
11:27 28.6 °F /  -1.9 °C 11.4 °F /  -11.4 °C 30.17 in /  1021.6 hPa SSW 5.6 mph /  9 km/h 12.0 mph /  19.3 km/h 48 % 0.00 in /  0 mm
11:32 28.6 °F /  -1.9 °C 12.3 °F /  -10.9 °C 30.17 in /  1021.6 hPa West 7.8 mph /  12.6 km/h 12.7 mph /  20.4 km/h 50 % 0.00 in /  0 mm
11:37 28.5 °F /  -1.9 °C 11.3 °F /  -11.5 °C 30.17 in /  1021.6 hPa SSW 4.4 mph /  7.1 km/h 10.4 mph /  16.7 km/h 48 % 0.00 in /  0 mm
11:42 28.4 °F /  -2 °C 10.7 °F /  -11.8 °C 30.17 in /  1021.6 hPa SSW 5.8 mph /  9.3 km/h 13.8 mph /  22.2 km/h 47 % 0.00 in /  0 mm
11:47 28.4 °F /  -2 °C 11.2 °F /  -11.6 °C 30.16 in /  1021.2 hPa West 3.6 mph /  5.8 km/h 6.0 mph /  9.7 km/h 48 % 0.00 in /  0 mm
11:52 28.5 °F /  -1.9 °C 11.3 °F /  -11.5 °C 30.16 in /  1021.2 hPa WNW 1.1 mph /  1.8 km/h 3.5 mph /  5.6 km/h 48 % 0.00 in /  0 mm
11:57 28.5 °F /  -1.9 °C 11.7 °F /  -11.3 °C 30.16 in /  1021.2 hPa WNW 3.6 mph /  5.8 km/h 9.2 mph /  14.8 km/h 49 % 0.00 in /  0 mm
12:02 28.6 °F /  -1.9 °C 11.8 °F /  -11.2 °C 30.15 in /  1020.9 hPa West 2.6 mph /  4.2 km/h 5.8 mph /  9.3 km/h 49 % 0.00 in /  0 mm
12:07 28.6 °F /  -1.9 °C 10.9 °F /  -11.7 °C 30.15 in /  1020.9 hPa West 8.6 mph /  13.8 km/h 11.5 mph /  18.5 km/h 47 % 0.00 in /  0 mm
12:12 28.4 °F /  -2 °C 10.7 °F /  -11.8 °C 30.15 in /  1020.9 hPa SW 5.9 mph /  9.5 km/h 6.9 mph /  11.1 km/h 47 % 0.00 in /  0 mm
12:17 28.4 °F /  -2 °C 10.7 °F /  -11.8 °C 30.15 in /  1020.9 hPa West 6.7 mph /  10.8 km/h 12.7 mph /  20.4 km/h 47 % 0.00 in /  0 mm
12:22 28.4 °F /  -2 °C 10.7 °F /  -11.8 °C 30.15 in /  1020.9 hPa SW 6.2 mph /  10 km/h 10.4 mph /  16.7 km/h 47 % 0.00 in /  0 mm
12:27 28.4 °F /  -2 °C 11.2 °F /  -11.6 °C 30.15 in /  1020.9 hPa WSW 3.3 mph /  5.3 km/h 9.2 mph /  14.8 km/h 48 % 0.00 in /  0 mm
12:32 28.4 °F /  -2 °C 11.2 °F /  -11.6 °C 30.14 in /  1020.5 hPa WNW 4.9 mph /  7.9 km/h 12.7 mph /  20.4 km/h 48 % 0.00 in /  0 mm
12:37 28.5 °F /  -1.9 °C 11.3 °F /  -11.5 °C 30.14 in /  1020.5 hPa SW 5.6 mph /  9 km/h 9.2 mph /  14.8 km/h 48 % 0.00 in /  0 mm
12:42 28.7 °F /  -1.8 °C 11.9 °F /  -11.2 °C 30.14 in /  1020.5 hPa SSW 3.0 mph /  4.8 km/h 8.1 mph /  13 km/h 49 % 0.00 in /  0 mm
12:47 28.8 °F /  -1.8 °C 11.6 °F /  -11.3 °C 30.14 in /  1020.5 hPa SW 5.4 mph /  8.7 km/h 11.5 mph /  18.5 km/h 48 % 0.00 in /  0 mm
12:53 29.0 °F /  -1.7 °C 11.3 °F /  -11.5 °C 30.14 in /  1020.5 hPa WSW 3.7 mph /  6 km/h 7.0 mph /  11.3 km/h 47 % 0.00 in /  0 mm
12:58 29.3 °F /  -1.5 °C 11.5 °F /  -11.4 °C 30.13 in /  1020.2 hPa SW 5.0 mph /  8 km/h 10.4 mph /  16.7 km/h 47 % 0.00 in /  0 mm
13:03 29.5 °F /  -1.4 °C 12.2 °F /  -11 °C 30.13 in /  1020.2 hPa SW 1.9 mph /  3.1 km/h 8.1 mph /  13 km/h 48 % 0.00 in /  0 mm
13:08 29.6 °F /  -1.3 °C 11.3 °F /  -11.5 °C 30.12 in /  1019.9 hPa West 7.2 mph /  11.6 km/h 11.5 mph /  18.5 km/h 46 % 0.00 in /  0 mm
13:13 29.9 °F /  -1.2 °C 11.6 °F /  -11.3 °C 30.12 in /  1019.9 hPa SSW 3.9 mph /  6.3 km/h 7.0 mph /  11.3 km/h 46 % 0.00 in /  0 mm
13:18 30.3 °F /  -0.9 °C 12.0 °F /  -11.1 °C 30.12 in /  1019.9 hPa WSW 4.1 mph /  6.6 km/h 9.2 mph /  14.8 km/h 46 % 0.00 in /  0 mm
13:23 30.6 °F /  -0.8 °C 11.7 °F /  -11.3 °C 30.12 in /  1019.9 hPa WSW 4.0 mph /  6.4 km/h 6.0 mph /  9.7 km/h 45 % 0.00 in /  0 mm
13:28 30.9 °F /  -0.6 °C 13.0 °F /  -10.6 °C 30.12 in /  1019.9 hPa SSW 1.5 mph /  2.4 km/h 5.0 mph /  8 km/h 47 % 0.00 in /  0 mm
13:33 31.3 °F /  -0.4 °C 12.9 °F /  -10.6 °C 30.11 in /  1019.5 hPa SSW 5.6 mph /  9 km/h 10.4 mph /  16.7 km/h 46 % 0.00 in /  0 mm
13:38 31.4 °F /  -0.3 °C 12.5 °F /  -10.8 °C 30.11 in /  1019.5 hPa SSW 3.1 mph /  5 km/h 8.1 mph /  13 km/h 45 % 0.00 in /  0 mm
13:43 31.6 °F /  -0.2 °C 12.2 °F /  -11 °C 30.11 in /  1019.5 hPa WSW 4.0 mph /  6.4 km/h 10.4 mph /  16.7 km/h 44 % 0.00 in /  0 mm
13:48 31.7 °F /  -0.2 °C 12.2 °F /  -11 °C 30.11 in /  1019.5 hPa WSW 2.1 mph /  3.4 km/h 8.1 mph /  13 km/h 44 % 0.00 in /  0 mm
13:53 31.7 °F /  -0.2 °C 12.2 °F /  -11 °C 30.11 in /  1019.5 hPa WSW 4.7 mph /  7.6 km/h 9.0 mph /  14.5 km/h 44 % 0.00 in /  0 mm
13:58 31.8 °F /  -0.1 °C 11.8 °F /  -11.2 °C 30.11 in /  1019.5 hPa SW 2.7 mph /  4.3 km/h 4.6 mph /  7.4 km/h 43 % 0.00 in /  0 mm
14:03 31.9 °F /  -0.1 °C 11.9 °F /  -11.2 °C 30.11 in /  1019.5 hPa SW 5.6 mph /  9 km/h 8.1 mph /  13 km/h 43 % 0.00 in /  0 mm
14:08 32.0 °F /  0 °C 11.5 °F /  -11.4 °C 30.11 in /  1019.5 hPa South 7.8 mph /  12.6 km/h 11.5 mph /  18.5 km/h 42 % 0.00 in /  0 mm
14:13 31.9 °F /  -0.1 °C 11.4 °F /  -11.4 °C 30.11 in /  1019.5 hPa WSW 4.3 mph /  6.9 km/h 9.2 mph /  14.8 km/h 42 % 0.00 in /  0 mm
14:18 31.7 °F /  -0.2 °C 11.2 °F /  -11.6 °C 30.10 in /  1019.2 hPa West 3.5 mph /  5.6 km/h 10.4 mph /  16.7 km/h 42 % 0.00 in /  0 mm
14:23 31.7 °F /  -0.2 °C 11.7 °F /  -11.3 °C 30.10 in /  1019.2 hPa West 4.3 mph /  6.9 km/h 5.0 mph /  8 km/h 43 % 0.00 in /  0 mm
14:28 31.6 °F /  -0.2 °C 11.6 °F /  -11.3 °C 30.10 in /  1019.2 hPa SW 4.4 mph /  7.1 km/h 8.0 mph /  12.9 km/h 43 % 0.00 in /  0 mm
14:34 31.7 °F /  -0.2 °C 12.8 °F /  -10.7 °C 30.10 in /  1019.2 hPa SW 1.3 mph /  2.1 km/h 3.5 mph /  5.6 km/h 45 % 0.00 in /  0 mm
14:39 31.6 °F /  -0.2 °C 12.2 °F /  -11 °C 30.10 in /  1019.2 hPa SSW 3.1 mph /  5 km/h 6.0 mph /  9.7 km/h 44 % 0.00 in /  0 mm
14:44 31.5 °F /  -0.3 °C 12.1 °F /  -11.1 °C 30.10 in /  1019.2 hPa SW 6.0 mph /  9.7 km/h 11.5 mph /  18.5 km/h 44 % 0.00 in /  0 mm
14:49 31.3 °F /  -0.4 °C 11.9 °F /  -11.2 °C 30.10 in /  1019.2 hPa WSW 4.0 mph /  6.4 km/h 5.8 mph /  9.3 km/h 44 % 0.00 in /  0 mm
14:54 31.1 °F /  -0.5 °C 12.2 °F /  -11 °C 30.10 in /  1019.2 hPa SW 6.7 mph /  10.8 km/h 10.4 mph /  16.7 km/h 45 % 0.00 in /  0 mm
14:59 30.8 °F /  -0.7 °C 11.9 °F /  -11.2 °C 30.10 in /  1019.2 hPa SSW 4.8 mph /  7.7 km/h 8.0 mph /  12.9 km/h 45 % 0.00 in /  0 mm
15:04 30.5 °F /  -0.8 °C 11.7 °F /  -11.3 °C 30.10 in /  1019.2 hPa SSW 4.8 mph /  7.7 km/h 10.4 mph /  16.7 km/h 45 % 0.00 in /  0 mm
15:09 30.4 °F /  -0.9 °C 12.5 °F /  -10.8 °C 30.10 in /  1019.2 hPa SSW 2.8 mph /  4.5 km/h 6.0 mph /  9.7 km/h 47 % 0.00 in /  0 mm
15:14 30.3 °F /  -0.9 °C 12.0 °F /  -11.1 °C 30.10 in /  1019.2 hPa SW 3.7 mph /  6 km/h 9.2 mph /  14.8 km/h 46 % 0.00 in /  0 mm
15:19 30.1 °F /  -1.1 °C 12.7 °F /  -10.7 °C 30.10 in /  1019.2 hPa South 6.3 mph /  10.1 km/h 11.5 mph /  18.5 km/h 48 % 0.00 in /  0 mm
15:24 29.9 °F /  -1.2 °C 12.1 °F /  -11.1 °C 30.10 in /  1019.2 hPa West 3.2 mph /  5.1 km/h 6.9 mph /  11.1 km/h 47 % 0.00 in /  0 mm
15:29 29.9 °F /  -1.2 °C 12.6 °F /  -10.8 °C 30.10 in /  1019.2 hPa SSW 5.1 mph /  8.2 km/h 11.5 mph /  18.5 km/h 48 % 0.00 in /  0 mm
15:34 29.9 °F /  -1.2 °C 12.6 °F /  -10.8 °C 30.10 in /  1019.2 hPa SSW 4.0 mph /  6.4 km/h 8.1 mph /  13 km/h 48 % 0.00 in /  0 mm
15:39 29.9 °F /  -1.2 °C 12.6 °F /  -10.8 °C 30.10 in /  1019.2 hPa South 6.7 mph /  10.8 km/h 9.2 mph /  14.8 km/h 48 % 0.00 in /  0 mm
15:44 29.8 °F /  -1.2 °C 12.5 °F /  -10.8 °C 30.10 in /  1019.2 hPa WSW 4.2 mph /  6.8 km/h 10.4 mph /  16.7 km/h 48 % 0.00 in /  0 mm
15:49 29.8 °F /  -1.2 °C 12.5 °F /  -10.8 °C 30.10 in /  1019.2 hPa SW 4.4 mph /  7.1 km/h 7.0 mph /  11.3 km/h 48 % 0.00 in /  0 mm
15:54 29.7 °F /  -1.3 °C 12.4 °F /  -10.9 °C 30.10 in /  1019.2 hPa SSW 5.4 mph /  8.7 km/h 8.1 mph /  13 km/h 48 % 0.00 in /  0 mm
16:00 29.7 °F /  -1.3 °C 12.4 °F /  -10.9 °C 30.10 in /  1019.2 hPa SSW 1.0 mph /  1.6 km/h 4.6 mph /  7.4 km/h 48 % 0.00 in /  0 mm
16:05 29.7 °F /  -1.3 °C 12.4 °F /  -10.9 °C 30.10 in /  1019.2 hPa SW 4.6 mph /  7.4 km/h 7.0 mph /  11.3 km/h 48 % 0.00 in /  0 mm
16:10 29.7 °F /  -1.3 °C 12.4 °F /  -10.9 °C 30.10 in /  1019.2 hPa SSW 5.3 mph /  8.5 km/h 10.0 mph /  16.1 km/h 48 % 0.00 in /  0 mm
16:15 29.6 °F /  -1.3 °C 12.3 °F /  -10.9 °C 30.10 in /  1019.2 hPa SW 2.7 mph /  4.3 km/h 8.1 mph /  13 km/h 48 % 0.00 in /  0 mm
16:20 29.6 °F /  -1.3 °C 12.3 °F /  -10.9 °C 30.10 in /  1019.2 hPa WSW 6.6 mph /  10.6 km/h 9.2 mph /  14.8 km/h 48 % 0.00 in /  0 mm
16:25 29.5 °F /  -1.4 °C 12.2 °F /  -11 °C 30.10 in /  1019.2 hPa SW 6.2 mph /  10 km/h 11.0 mph /  17.7 km/h 48 % 0.00 in /  0 mm
16:30 29.4 °F /  -1.4 °C 12.1 °F /  -11.1 °C 30.10 in /  1019.2 hPa WSW 5.1 mph /  8.2 km/h 8.1 mph /  13 km/h 48 % 0.00 in /  0 mm
16:35 29.3 °F /  -1.5 °C 12.5 °F /  -10.8 °C 30.10 in /  1019.2 hPa WSW 4.8 mph /  7.7 km/h 11.5 mph /  18.5 km/h 49 % 0.00 in /  0 mm
16:40 29.3 °F /  -1.5 °C 12.9 °F /  -10.6 °C 30.10 in /  1019.2 hPa South 3.6 mph /  5.8 km/h 6.0 mph /  9.7 km/h 50 % 0.00 in /  0 mm
16:45 29.2 °F /  -1.6 °C 12.8 °F /  -10.7 °C 30.10 in /  1019.2 hPa South 5.2 mph /  8.4 km/h 10.4 mph /  16.7 km/h 50 % 0.00 in /  0 mm
16:50 29.1 °F /  -1.6 °C 12.8 °F /  -10.7 °C 30.11 in /  1019.5 hPa SW 4.9 mph /  7.9 km/h 8.1 mph /  13 km/h 50 % 0.00 in /  0 mm
16:55 29.0 °F /  -1.7 °C 12.7 °F /  -10.7 °C 30.11 in /  1019.5 hPa WSW 3.8 mph /  6.1 km/h 8.1 mph /  13 km/h 50 % 0.00 in /  0 mm
17:00 28.9 °F /  -1.7 °C 12.6 °F /  -10.8 °C 30.11 in /  1019.5 hPa South 5.7 mph /  9.2 km/h 9.2 mph /  14.8 km/h 50 % 0.00 in /  0 mm
17:05 28.8 °F /  -1.8 °C 12.5 °F /  -10.8 °C 30.11 in /  1019.5 hPa South 2.6 mph /  4.2 km/h 7.0 mph /  11.3 km/h 50 % 0.00 in /  0 mm
17:10 28.7 °F /  -1.8 °C 12.4 °F /  -10.9 °C 30.11 in /  1019.5 hPa SW 4.9 mph /  7.9 km/h 9.0 mph /  14.5 km/h 50 % 0.00 in /  0 mm
17:15 28.6 °F /  -1.9 °C 12.7 °F /  -10.7 °C 30.11 in /  1019.5 hPa South 1.9 mph /  3.1 km/h 4.6 mph /  7.4 km/h 51 % 0.00 in /  0 mm
17:20 28.5 °F /  -1.9 °C 12.6 °F /  -10.8 °C 30.11 in /  1019.5 hPa SSW 1.9 mph /  3.1 km/h 6.9 mph /  11.1 km/h 51 % 0.00 in /  0 mm
17:25 28.5 °F /  -1.9 °C 12.6 °F /  -10.8 °C 30.11 in /  1019.5 hPa SSW 1.2 mph /  1.9 km/h 5.8 mph /  9.3 km/h 51 % 0.00 in /  0 mm
17:31 28.4 °F /  -2 °C 12.6 °F /  -10.8 °C 30.11 in /  1019.5 hPa SW 2.7 mph /  4.3 km/h 5.8 mph /  9.3 km/h 51 % 0.00 in /  0 mm
17:36 28.3 °F /  -2.1 °C 12.9 °F /  -10.6 °C 30.11 in /  1019.5 hPa SSW 2.0 mph /  3.2 km/h 7.0 mph /  11.3 km/h 52 % 0.00 in /  0 mm
17:41 28.2 °F /  -2.1 °C 12.8 °F /  -10.7 °C 30.11 in /  1019.5 hPa SSW 1.0 mph /  1.6 km/h 7.0 mph /  11.3 km/h 52 % 0.00 in /  0 mm
17:46 28.2 °F /  -2.1 °C 12.8 °F /  -10.7 °C 30.12 in /  1019.9 hPa SW 1.0 mph /  1.6 km/h 4.0 mph /  6.4 km/h 52 % 0.00 in /  0 mm
17:51 28.1 °F /  -2.2 °C 13.1 °F /  -10.5 °C 30.12 in /  1019.9 hPa SW 2.0 mph /  3.2 km/h 6.0 mph /  9.7 km/h 53 % 0.00 in /  0 mm
17:56 28.0 °F /  -2.2 °C 13.1 °F /  -10.5 °C 30.12 in /  1019.9 hPa SW 1.0 mph /  1.6 km/h 4.0 mph /  6.4 km/h 53 % 0.00 in /  0 mm
18:01 27.9 °F /  -2.3 °C 13.4 °F /  -10.3 °C 30.13 in /  1020.2 hPa SSW 1.2 mph /  1.9 km/h 3.5 mph /  5.6 km/h 54 % 0.00 in /  0 mm
18:06 27.9 °F /  -2.3 °C 13.4 °F /  -10.3 °C 30.12 in /  1019.9 hPa SSW 2.0 mph /  3.2 km/h 6.0 mph /  9.7 km/h 54 % 0.00 in /  0 mm
18:11 27.8 °F /  -2.3 °C 13.3 °F /  -10.4 °C 30.13 in /  1020.2 hPa SSW 3.0 mph /  4.8 km/h 5.0 mph /  8 km/h 54 % 0.00 in /  0 mm
18:16 27.8 °F /  -2.3 °C 13.3 °F /  -10.4 °C 30.12 in /  1019.9 hPa SW 2.9 mph /  4.7 km/h 4.0 mph /  6.4 km/h 54 % 0.00 in /  0 mm
18:21 27.7 °F /  -2.4 °C 13.2 °F /  -10.4 °C 30.13 in /  1020.2 hPa SW 2.0 mph /  3.2 km/h 5.0 mph /  8 km/h 54 % 0.00 in /  0 mm
18:26 27.7 °F /  -2.4 °C 13.2 °F /  -10.4 °C 30.12 in /  1019.9 hPa SW 2.0 mph /  3.2 km/h 10.0 mph /  16.1 km/h 54 % 0.00 in /  0 mm
18:31 27.7 °F /  -2.4 °C 13.2 °F /  -10.4 °C 30.13 in /  1020.2 hPa Calm   3.0 mph /  4.8 km/h 54 % 0.00 in /  0 mm
18:36 27.6 °F /  -2.4 °C 13.1 °F /  -10.5 °C 30.13 in /  1020.2 hPa SW 3.0 mph /  4.8 km/h 5.0 mph /  8 km/h 54 % 0.00 in /  0 mm
18:41 27.7 °F /  -2.4 °C 13.2 °F /  -10.4 °C 30.13 in /  1020.2 hPa SW 1.0 mph /  1.6 km/h 4.0 mph /  6.4 km/h 54 % 0.00 in /  0 mm
18:46 27.7 °F /  -2.4 °C 13.2 °F /  -10.4 °C 30.13 in /  1020.2 hPa SW 2.0 mph /  3.2 km/h 7.0 mph /  11.3 km/h 54 % 0.00 in /  0 mm
18:51 27.6 °F /  -2.4 °C 13.1 °F /  -10.5 °C 30.13 in /  1020.2 hPa Calm   3.0 mph /  4.8 km/h 54 % 0.00 in /  0 mm
18:56 27.6 °F /  -2.4 °C 13.5 °F /  -10.3 °C 30.13 in /  1020.2 hPa SSW 2.0 mph /  3.2 km/h 4.0 mph /  6.4 km/h 55 % 0.00 in /  0 mm
19:01 27.6 °F /  -2.4 °C 13.5 °F /  -10.3 °C 30.13 in /  1020.2 hPa SW 3.5 mph /  5.6 km/h 6.0 mph /  9.7 km/h 55 % 0.00 in /  0 mm
19:06 27.6 °F /  -2.4 °C 13.5 °F /  -10.3 °C 30.13 in /  1020.2 hPa SSW 3.0 mph /  4.8 km/h 6.0 mph /  9.7 km/h 55 % 0.00 in /  0 mm
19:11 27.6 °F /  -2.4 °C 13.1 °F /  -10.5 °C 30.13 in /  1020.2 hPa SSW 0.7 mph /  1.1 km/h 3.5 mph /  5.6 km/h 54 % 0.00 in /  0 mm
19:16 27.6 °F /  -2.4 °C 13.5 °F /  -10.3 °C 30.13 in /  1020.2 hPa SSW 3.0 mph /  4.8 km/h 7.0 mph /  11.3 km/h 55 % 0.00 in /  0 mm
19:21 27.6 °F /  -2.4 °C 13.5 °F /  -10.3 °C 30.13 in /  1020.2 hPa SW 2.0 mph /  3.2 km/h 5.0 mph /  8 km/h 55 % 0.00 in /  0 mm
19:26 27.6 °F /  -2.4 °C 13.5 °F /  -10.3 °C 30.13 in /  1020.2 hPa SSW 2.1 mph /  3.4 km/h 6.9 mph /  11.1 km/h 55 % 0.00 in /  0 mm
19:31 27.6 °F /  -2.4 °C 13.5 °F /  -10.3 °C 30.13 in /  1020.2 hPa SW 2.0 mph /  3.2 km/h 7.0 mph /  11.3 km/h 55 % 0.00 in /  0 mm
19:36 27.6 °F /  -2.4 °C 13.5 °F /  -10.3 °C 30.13 in /  1020.2 hPa SW 1.0 mph /  1.6 km/h 7.0 mph /  11.3 km/h 55 % 0.00 in /  0 mm
19:41 27.6 °F /  -2.4 °C 13.5 °F /  -10.3 °C 30.13 in /  1020.2 hPa SSW 5.0 mph /  8 km/h 12.0 mph /  19.3 km/h 55 % 0.00 in /  0 mm
19:46 27.6 °F /  -2.4 °C 13.5 °F /  -10.3 °C 30.13 in /  1020.2 hPa SW 2.0 mph /  3.2 km/h 7.0 mph /  11.3 km/h 55 % 0.00 in /  0 mm
19:51 27.6 °F /  -2.4 °C 13.5 °F /  -10.3 °C 30.13 in /  1020.2 hPa SSW 5.0 mph /  8 km/h 7.0 mph /  11.3 km/h 55 % 0.00 in /  0 mm
19:56 27.7 °F /  -2.4 °C 13.6 °F /  -10.2 °C 30.13 in /  1020.2 hPa SSW 1.0 mph /  1.6 km/h 12.0 mph /  19.3 km/h 55 % 0.00 in /  0 mm
20:01 27.8 °F /  -2.3 °C 13.7 °F /  -10.2 °C 30.13 in /  1020.2 hPa SW 2.3 mph /  3.7 km/h 3.5 mph /  5.6 km/h 55 % 0.00 in /  0 mm
20:06 27.8 °F /  -2.3 °C 13.7 °F /  -10.2 °C 30.13 in /  1020.2 hPa SSW 3.7 mph /  6 km/h 5.8 mph /  9.3 km/h 55 % 0.00 in /  0 mm
20:11 27.8 °F /  -2.3 °C 13.7 °F /  -10.2 °C 30.12 in /  1019.9 hPa SW 1.3 mph /  2.1 km/h 3.5 mph /  5.6 km/h 55 % 0.00 in /  0 mm
20:16 27.8 °F /  -2.3 °C 14.1 °F /  -9.9 °C 30.12 in /  1019.9 hPa SW 1.2 mph /  1.9 km/h 3.5 mph /  5.6 km/h 56 % 0.00 in /  0 mm
20:21 27.8 °F /  -2.3 °C 14.1 °F /  -9.9 °C 30.12 in /  1019.9 hPa SSW 4.0 mph /  6.4 km/h 5.8 mph /  9.3 km/h 56 % 0.00 in /  0 mm
20:26 27.8 °F /  -2.3 °C 14.1 °F /  -9.9 °C 30.12 in /  1019.9 hPa SW 3.0 mph /  4.8 km/h 4.0 mph /  6.4 km/h 56 % 0.00 in /  0 mm
20:31 27.9 °F /  -2.3 °C 14.2 °F /  -9.9 °C 30.12 in /  1019.9 hPa WSW 1.8 mph /  2.9 km/h 3.5 mph /  5.6 km/h 56 % 0.00 in /  0 mm
20:36 27.8 °F /  -2.3 °C 14.5 °F /  -9.7 °C 30.12 in /  1019.9 hPa SSW 6.0 mph /  9.7 km/h 9.2 mph /  14.8 km/h 57 % 0.00 in /  0 mm
20:41 27.8 °F /  -2.3 °C 14.5 °F /  -9.7 °C 30.12 in /  1019.9 hPa SSW 3.7 mph /  6 km/h 6.0 mph /  9.7 km/h 57 % 0.00 in /  0 mm
20:46 27.9 °F /  -2.3 °C 14.6 °F /  -9.7 °C 30.12 in /  1019.9 hPa SSW 3.4 mph /  5.5 km/h 4.6 mph /  7.4 km/h 57 % 0.00 in /  0 mm
20:51 27.9 °F /  -2.3 °C 14.6 °F /  -9.7 °C 30.12 in /  1019.9 hPa SW 1.8 mph /  2.9 km/h 4.0 mph /  6.4 km/h 57 % 0.00 in /  0 mm
20:56 27.9 °F /  -2.3 °C 14.6 °F /  -9.7 °C 30.12 in /  1019.9 hPa SW 0.7 mph /  1.1 km/h 2.3 mph /  3.7 km/h 57 % 0.00 in /  0 mm
21:01 27.9 °F /  -2.3 °C 15.0 °F /  -9.4 °C 30.12 in /  1019.9 hPa SW 1.0 mph /  1.6 km/h 3.5 mph /  5.6 km/h 58 % 0.00 in /  0 mm
21:06 27.9 °F /  -2.3 °C 15.0 °F /  -9.4 °C 30.12 in /  1019.9 hPa SSW 1.7 mph /  2.7 km/h 3.5 mph /  5.6 km/h 58 % 0.00 in /  0 mm
21:11 27.9 °F /  -2.3 °C 15.0 °F /  -9.4 °C 30.12 in /  1019.9 hPa SSW 6.5 mph /  10.5 km/h 9.2 mph /  14.8 km/h 58 % 0.00 in /  0 mm
21:16 28.0 °F /  -2.2 °C 15.5 °F /  -9.2 °C 30.12 in /  1019.9 hPa SSW 4.5 mph /  7.2 km/h 10.4 mph /  16.7 km/h 59 % 0.00 in /  0 mm
21:21 28.1 °F /  -2.2 °C 15.6 °F /  -9.1 °C 30.13 in /  1020.2 hPa SW 3.8 mph /  6.1 km/h 6.9 mph /  11.1 km/h 59 % 0.00 in /  0 mm
21:26 28.1 °F /  -2.2 °C 15.6 °F /  -9.1 °C 30.12 in /  1019.9 hPa SSW 2.8 mph /  4.5 km/h 4.6 mph /  7.4 km/h 59 % 0.00 in /  0 mm
21:32 28.2 °F /  -2.1 °C 15.7 °F /  -9.1 °C 30.13 in /  1020.2 hPa SW 3.0 mph /  4.8 km/h 6.9 mph /  11.1 km/h 59 % 0.00 in /  0 mm
21:37 28.3 °F /  -2.1 °C 15.8 °F /  -9 °C 30.13 in /  1020.2 hPa SW 3.6 mph /  5.8 km/h 6.9 mph /  11.1 km/h 59 % 0.00 in /  0 mm
21:42 28.3 °F /  -2.1 °C 16.2 °F /  -8.8 °C 30.13 in /  1020.2 hPa SSW 3.5 mph /  5.6 km/h 5.8 mph /  9.3 km/h 60 % 0.00 in /  0 mm
21:47 28.3 °F /  -2.1 °C 16.2 °F /  -8.8 °C 30.12 in /  1019.9 hPa SSW 3.4 mph /  5.5 km/h 6.9 mph /  11.1 km/h 60 % 0.00 in /  0 mm
21:52 28.3 °F /  -2.1 °C 16.2 °F /  -8.8 °C 30.12 in /  1019.9 hPa SW 3.0 mph /  4.8 km/h 8.1 mph /  13 km/h 60 % 0.00 in /  0 mm
21:57 28.3 °F /  -2.1 °C 16.2 °F /  -8.8 °C 30.12 in /  1019.9 hPa SSW 3.2 mph /  5.1 km/h 10.4 mph /  16.7 km/h 60 % 0.00 in /  0 mm
22:02 28.3 °F /  -2.1 °C 16.6 °F /  -8.6 °C 30.12 in /  1019.9 hPa SSW 3.2 mph /  5.1 km/h 8.1 mph /  13 km/h 61 % 0.00 in /  0 mm
22:07 28.4 °F /  -2 °C 16.7 °F /  -8.5 °C 30.12 in /  1019.9 hPa SSW 5.6 mph /  9 km/h 9.2 mph /  14.8 km/h 61 % 0.00 in /  0 mm
22:12 28.5 °F /  -1.9 °C 16.4 °F /  -8.7 °C 30.12 in /  1019.9 hPa WSW 3.6 mph /  5.8 km/h 5.0 mph /  8 km/h 60 % 0.00 in /  0 mm
22:17 28.5 °F /  -1.9 °C 16.4 °F /  -8.7 °C 30.12 in /  1019.9 hPa SSW 5.2 mph /  8.4 km/h 11.5 mph /  18.5 km/h 60 % 0.00 in /  0 mm
22:22 28.7 °F /  -1.8 °C 16.6 °F /  -8.6 °C 30.12 in /  1019.9 hPa SSW 6.2 mph /  10 km/h 10.4 mph /  16.7 km/h 60 % 0.00 in /  0 mm
22:27 28.8 °F /  -1.8 °C 16.3 °F /  -8.7 °C 30.12 in /  1019.9 hPa SSW 4.2 mph /  6.8 km/h 7.0 mph /  11.3 km/h 59 % 0.00 in /  0 mm
22:32 28.9 °F /  -1.7 °C 16.4 °F /  -8.7 °C 30.12 in /  1019.9 hPa SSW 7.8 mph /  12.6 km/h 11.5 mph /  18.5 km/h 59 % 0.00 in /  0 mm
22:37 29.0 °F /  -1.7 °C 16.4 °F /  -8.7 °C 30.12 in /  1019.9 hPa South 6.3 mph /  10.1 km/h 9.2 mph /  14.8 km/h 59 % 0.00 in /  0 mm
22:42 29.2 °F /  -1.6 °C 16.2 °F /  -8.8 °C 30.12 in /  1019.9 hPa SW 1.6 mph /  2.6 km/h 6.9 mph /  11.1 km/h 58 % 0.00 in /  0 mm
22:47 29.2 °F /  -1.6 °C 16.2 °F /  -8.8 °C 30.12 in /  1019.9 hPa SSW 3.5 mph /  5.6 km/h 9.2 mph /  14.8 km/h 58 % 0.00 in /  0 mm
22:52 29.3 °F /  -1.5 °C 16.3 °F /  -8.7 °C 30.11 in /  1019.5 hPa SSW 7.4 mph /  11.9 km/h 11.5 mph /  18.5 km/h 58 % 0.00 in /  0 mm
22:57 29.4 °F /  -1.4 °C 16.4 °F /  -8.7 °C 30.12 in /  1019.9 hPa SSE 4.4 mph /  7.1 km/h 5.8 mph /  9.3 km/h 58 % 0.00 in /  0 mm
23:02 29.4 °F /  -1.4 °C 16.8 °F /  -8.4 °C 30.12 in /  1019.9 hPa SW 7.4 mph /  11.9 km/h 11.5 mph /  18.5 km/h 59 % 0.00 in /  0 mm
23:08 29.5 °F /  -1.4 °C 16.5 °F /  -8.6 °C 30.11 in /  1019.5 hPa SW 3.3 mph /  5.3 km/h 10.4 mph /  16.7 km/h 58 % 0.00 in /  0 mm
23:13 29.6 °F /  -1.3 °C 17.0 °F /  -8.3 °C 30.12 in /  1019.9 hPa SSW 4.6 mph /  7.4 km/h 6.0 mph /  9.7 km/h 59 % 0.00 in /  0 mm
23:18 29.6 °F /  -1.3 °C 17.0 °F /  -8.3 °C 30.11 in /  1019.5 hPa SSW 4.8 mph /  7.7 km/h 8.1 mph /  13 km/h 59 % 0.00 in /  0 mm
23:23 29.7 °F /  -1.3 °C 17.1 °F /  -8.3 °C 30.11 in /  1019.5 hPa SW 4.1 mph /  6.6 km/h 7.0 mph /  11.3 km/h 59 % 0.00 in /  0 mm
23:28 29.7 °F /  -1.3 °C 17.1 °F /  -8.3 °C 30.11 in /  1019.5 hPa SSE 4.4 mph /  7.1 km/h 7.0 mph /  11.3 km/h 59 % 0.00 in /  0 mm
23:33 29.8 °F /  -1.2 °C 17.2 °F /  -8.2 °C 30.10 in /  1019.2 hPa SW 3.6 mph /  5.8 km/h 4.6 mph /  7.4 km/h 59 % 0.00 in /  0 mm
23:38 29.8 °F /  -1.2 °C 17.2 °F /  -8.2 °C 30.10 in /  1019.2 hPa SSW 3.9 mph /  6.3 km/h 8.1 mph /  13 km/h 59 % 0.00 in /  0 mm
23:43 29.9 °F /  -1.2 °C 17.7 °F /  -7.9 °C 30.10 in /  1019.2 hPa South 3.1 mph /  5 km/h 8.0 mph /  12.9 km/h 60 % 0.00 in /  0 mm
23:48 29.9 °F /  -1.2 °C 17.7 °F /  -7.9 °C 30.10 in /  1019.2 hPa South 2.4 mph /  3.9 km/h 4.6 mph /  7.4 km/h 60 % 0.00 in /  0 mm
23:53 30.0 °F /  -1.1 °C 17.8 °F /  -7.9 °C 30.11 in /  1019.5 hPa SSW 4.1 mph /  6.6 km/h 7.0 mph /  11.3 km/h 60 % 0.00 in /  0 mm
23:58 30.1 °F /  -1.1 °C 18.3 °F /  -7.6 °C 30.10 in /  1019.2 hPa SW 4.7 mph /  7.6 km/h 6.9 mph /  11.1 km/h 61 % 0.00 in /  0 mm
Crab Meadow Weather
Compliments of Weather Underground - 3 mb

Script developed by  Jim McMurry - jmcmurry@mwt.net Adapted for the template by  Wim van der Kuil - Leuven-Template.eu

Lightning: The average number of deaths from lightning is more than 100 a year with several more deaths from lightning related fires. Lightning injuries account for 3-5 times than those of lightning deaths.